sensor_id;sensor_type;location;lat;lon;timestamp;pressure;altitude;pressure_sealevel;temperature;humidity
79250;BME280;68679;51.030;7.584;2023-05-10T00:01:54;98185.22;;;14.25;68.63
79250;BME280;68679;51.030;7.584;2023-05-10T00:04:19;98184.00;;;14.22;68.85
79250;BME280;68679;51.030;7.584;2023-05-10T00:06:45;98180.28;;;14.23;68.36
79250;BME280;68679;51.030;7.584;2023-05-10T00:09:11;98181.06;;;14.24;68.67
79250;BME280;68679;51.030;7.584;2023-05-10T00:11:36;98177.66;;;14.23;68.50
79250;BME280;68679;51.030;7.584;2023-05-10T00:14:01;98184.34;;;14.21;68.89
79250;BME280;68679;51.030;7.584;2023-05-10T00:16:27;98183.56;;;14.20;68.54
79250;BME280;68679;51.030;7.584;2023-05-10T00:18:52;98179.34;;;14.19;68.95
79250;BME280;68679;51.030;7.584;2023-05-10T00:21:17;98178.59;;;14.19;68.86
79250;BME280;68679;51.030;7.584;2023-05-10T00:23:43;98175.16;;;14.18;68.94
79250;BME280;68679;51.030;7.584;2023-05-10T00:26:08;98174.41;;;14.18;68.95
79250;BME280;68679;51.030;7.584;2023-05-10T00:28:33;98176.28;;;14.17;68.94
79250;BME280;68679;51.030;7.584;2023-05-10T00:30:59;98183.09;;;14.18;68.92
79250;BME280;68679;51.030;7.584;2023-05-10T00:33:24;98181.88;;;14.16;69.14
79250;BME280;68679;51.030;7.584;2023-05-10T00:35:49;98180.00;;;14.16;68.83
79250;BME280;68679;51.030;7.584;2023-05-10T00:38:15;98171.31;;;14.16;68.67
79250;BME280;68679;51.030;7.584;2023-05-10T00:40:40;98182.19;;;14.14;68.96
79250;BME280;68679;51.030;7.584;2023-05-10T00:43:06;98176.13;;;14.14;68.96
79250;BME280;68679;51.030;7.584;2023-05-10T00:45:32;98184.06;;;14.14;68.71
79250;BME280;68679;51.030;7.584;2023-05-10T00:47:59;98182.19;;;14.14;68.57
79250;BME280;68679;51.030;7.584;2023-05-10T00:50:24;98181.72;;;14.12;69.11
79250;BME280;68679;51.030;7.584;2023-05-10T00:52:51;98182.81;;;14.11;68.88
79250;BME280;68679;51.030;7.584;2023-05-10T00:55:17;98190.38;;;14.13;68.84
79250;BME280;68679;51.030;7.584;2023-05-10T00:57:43;98185.75;;;14.10;69.10
79250;BME280;68679;51.030;7.584;2023-05-10T01:00:08;98180.97;;;14.03;68.81
79250;BME280;68679;51.030;7.584;2023-05-10T01:02:34;98185.91;;;14.05;68.97
79250;BME280;68679;51.030;7.584;2023-05-10T01:05:02;98184.38;;;14.04;68.92
79250;BME280;68679;51.030;7.584;2023-05-10T01:07:28;98188.88;;;14.03;69.13
79250;BME280;68679;51.030;7.584;2023-05-10T01:09:54;98186.56;;;14.02;68.99
79250;BME280;68679;51.030;7.584;2023-05-10T01:12:19;98178.66;;;14.02;68.79
79250;BME280;68679;51.030;7.584;2023-05-10T01:14:45;98183.59;;;14.03;68.84
79250;BME280;68679;51.030;7.584;2023-05-10T01:17:11;98188.88;;;14.03;69.01
79250;BME280;68679;51.030;7.584;2023-05-10T01:19:37;98188.88;;;14.03;68.66
79250;BME280;68679;51.030;7.584;2023-05-10T01:22:21;98193.38;;;14.03;68.68
79250;BME280;68679;51.030;7.584;2023-05-10T01:33:27;98193.84;;;13.96;69.21
79250;BME280;68679;51.030;7.584;2023-05-10T01:38:38;98182.84;;;13.94;68.96
79250;BME280;68679;51.030;7.584;2023-05-10T01:41:17;98184.69;;;13.93;68.94
79250;BME280;68679;51.030;7.584;2023-05-10T01:43:57;98189.19;;;13.93;68.82
79250;BME280;68679;51.030;7.584;2023-05-10T01:46:49;98184.25;;;13.91;69.00
79250;BME280;68679;51.030;7.584;2023-05-10T01:49:23;98186.44;;;13.89;69.20
79250;BME280;68679;51.030;7.584;2023-05-10T01:51:54;98186.88;;;13.91;69.05
79250;BME280;68679;51.030;7.584;2023-05-10T01:54:24;98186.88;;;13.91;69.03
79250;BME280;68679;51.030;7.584;2023-05-10T01:57:00;98176.34;;;13.91;68.96
79250;BME280;68679;51.030;7.584;2023-05-10T01:59:30;98185.34;;;13.90;68.93
79250;BME280;68679;51.030;7.584;2023-05-10T02:02:02;98189.06;;;13.89;68.81
79250;BME280;68679;51.030;7.584;2023-05-10T02:04:29;98184.09;;;13.88;69.04
79250;BME280;68679;51.030;7.584;2023-05-10T02:06:56;98184.41;;;13.86;69.08
79250;BME280;68679;51.030;7.584;2023-05-10T02:09:22;98185.63;;;13.89;69.07
79250;BME280;68679;51.030;7.584;2023-05-10T02:11:50;98190.44;;;13.87;69.13
79250;BME280;68679;51.030;7.584;2023-05-10T02:14:15;98190.44;;;13.87;69.15
79250;BME280;68679;51.030;7.584;2023-05-10T02:16:42;98196.81;;;13.86;69.11
79250;BME280;68679;51.030;7.584;2023-05-10T02:19:08;98191.09;;;13.84;69.20
79250;BME280;68679;51.030;7.584;2023-05-10T02:21:35;98199.00;;;13.84;69.41
79250;BME280;68679;51.030;7.584;2023-05-10T02:24:02;98197.13;;;13.84;68.92
79250;BME280;68679;51.030;7.584;2023-05-10T02:26:29;98194.50;;;13.84;69.43
79250;BME280;68679;51.030;7.584;2023-05-10T02:28:56;98195.59;;;13.83;69.39
79250;BME280;68679;51.030;7.584;2023-05-10T02:31:22;98199.28;;;13.82;69.21
79250;BME280;68679;51.030;7.584;2023-05-10T02:33:48;98199.28;;;13.82;69.36
79250;BME280;68679;51.030;7.584;2023-05-10T02:36:14;98203.00;;;13.81;69.48
79250;BME280;68679;51.030;7.584;2023-05-10T02:38:40;98198.84;;;13.80;69.36
79250;BME280;68679;51.030;7.584;2023-05-10T02:41:07;98196.97;;;13.81;69.20
79250;BME280;68679;51.030;7.584;2023-05-10T02:43:35;98193.88;;;13.79;69.30
79250;BME280;68679;51.030;7.584;2023-05-10T02:46:01;98196.97;;;13.81;69.43
79250;BME280;68679;51.030;7.584;2023-05-10T02:48:27;98200.69;;;13.80;69.35
79250;BME280;68679;51.030;7.584;2023-05-10T02:50:54;98200.38;;;13.81;69.45
79250;BME280;68679;51.030;7.584;2023-05-10T02:53:23;98204.09;;;13.80;69.34
79250;BME280;68679;51.030;7.584;2023-05-10T02:55:55;98202.56;;;13.79;69.40
79250;BME280;68679;51.030;7.584;2023-05-10T02:58:22;98204.88;;;13.81;69.18
79250;BME280;68679;51.030;7.584;2023-05-10T03:00:47;98204.56;;;13.82;69.23
79250;BME280;68679;51.030;7.584;2023-05-10T03:03:13;98201.47;;;13.80;69.31
79250;BME280;68679;51.030;7.584;2023-05-10T03:05:38;98198.38;;;13.78;69.38
79250;BME280;68679;51.030;7.584;2023-05-10T03:08:03;98201.78;;;13.79;69.25
79250;BME280;68679;51.030;7.584;2023-05-10T03:10:31;98207.84;;;13.79;69.24
79250;BME280;68679;51.030;7.584;2023-05-10T03:13:10;98205.19;;;13.79;69.34
79250;BME280;68679;51.030;7.584;2023-05-10T03:21:07;98212.31;;;13.79;69.06
79250;BME280;68679;51.030;7.584;2023-05-10T03:23:56;98213.72;;;13.76;69.59
79250;BME280;68679;51.030;7.584;2023-05-10T03:26:24;98206.28;;;13.78;69.51
79250;BME280;68679;51.030;7.584;2023-05-10T03:28:52;98210.47;;;13.79;69.17
79250;BME280;68679;51.030;7.584;2023-05-10T03:31:18;98210.91;;;13.81;69.25
79250;BME280;68679;51.030;7.584;2023-05-10T03:33:51;98211.56;;;13.78;69.29
79250;BME280;68679;51.030;7.584;2023-05-10T03:36:17;98218.22;;;13.76;69.63
79250;BME280;68679;51.030;7.584;2023-05-10T03:38:42;98213.72;;;13.76;69.39
79250;BME280;68679;51.030;7.584;2023-05-10T03:41:08;98220.38;;;13.74;69.63
79250;BME280;68679;51.030;7.584;2023-05-10T03:43:33;98220.06;;;13.75;69.60
79250;BME280;68679;51.030;7.584;2023-05-10T03:46:01;98221.94;;;13.75;69.44
79250;BME280;68679;51.030;7.584;2023-05-10T03:48:27;98227.97;;;13.75;69.69
79250;BME280;68679;51.030;7.584;2023-05-10T03:50:52;98227.53;;;13.73;69.81
79250;BME280;68679;51.030;7.584;2023-05-10T03:53:17;98235.88;;;13.75;69.80
79250;BME280;68679;51.030;7.584;2023-05-10T03:55:42;98232.47;;;13.75;69.67
79250;BME280;68679;51.030;7.584;2023-05-10T03:58:10;98240.69;;;13.73;69.57
79250;BME280;68679;51.030;7.584;2023-05-10T04:00:36;98238.50;;;13.75;69.47
79250;BME280;68679;51.030;7.584;2023-05-10T04:03:02;98240.25;;;13.71;69.57
79250;BME280;68679;51.030;7.584;2023-05-10T04:05:27;98236.03;;;13.70;69.43
79250;BME280;68679;51.030;7.584;2023-05-10T04:07:52;98245.03;;;13.69;69.42
79250;BME280;68679;51.030;7.584;2023-05-10T04:10:18;98244.25;;;13.68;69.62
79250;BME280;68679;51.030;7.584;2023-05-10T04:12:43;98253.09;;;13.73;69.39
79250;BME280;68679;51.030;7.584;2023-05-10T04:15:09;98249.97;;;13.71;69.69
79250;BME280;68679;51.030;7.584;2023-05-10T04:17:34;98246.13;;;13.68;69.55
79250;BME280;68679;51.030;7.584;2023-05-10T04:19:59;98252.47;;;13.67;69.46
79250;BME280;68679;51.030;7.584;2023-05-10T04:22:24;98252.31;;;13.63;69.48
79250;BME280;68679;51.030;7.584;2023-05-10T04:24:50;98250.44;;;13.64;69.61
79250;BME280;68679;51.030;7.584;2023-05-10T04:27:15;98260.22;;;13.63;69.64
79250;BME280;68679;51.030;7.584;2023-05-10T04:29:40;98256.03;;;13.62;69.53
79250;BME280;68679;51.030;7.584;2023-05-10T04:32:06;98257.44;;;13.60;69.56
79250;BME280;68679;51.030;7.584;2023-05-10T04:34:32;98253.41;;;13.62;69.44
79250;BME280;68679;51.030;7.584;2023-05-10T04:36:59;98260.84;;;13.60;69.52
79250;BME280;68679;51.030;7.584;2023-05-10T04:39:24;98258.97;;;13.61;69.74
79250;BME280;68679;51.030;7.584;2023-05-10T04:41:49;98258.22;;;13.60;69.55
79250;BME280;68679;51.030;7.584;2023-05-10T04:44:15;98261.13;;;13.59;69.57
79250;BME280;68679;51.030;7.584;2023-05-10T04:46:40;98268.75;;;13.60;69.39
79250;BME280;68679;51.030;7.584;2023-05-10T04:49:05;98269.38;;;13.66;69.68
79250;BME280;68679;51.030;7.584;2023-05-10T04:51:30;98274.47;;;13.62;69.45
79250;BME280;68679;51.030;7.584;2023-05-10T04:53:56;98277.88;;;13.63;69.25
79250;BME280;68679;51.030;7.584;2023-05-10T04:56:22;98284.22;;;13.62;69.76
79250;BME280;68679;51.030;7.584;2023-05-10T04:58:47;98287.97;;;13.61;69.90
79250;BME280;68679;51.030;7.584;2023-05-10T05:01:12;98287.97;;;13.61;69.75
79250;BME280;68679;51.030;7.584;2023-05-10T05:03:38;98285.63;;;13.59;69.77
79250;BME280;68679;51.030;7.584;2023-05-10T05:06:03;98281.91;;;13.60;69.89
79250;BME280;68679;51.030;7.584;2023-05-10T05:08:28;98286.09;;;13.61;69.45
79250;BME280;68679;51.030;7.584;2023-05-10T05:10:54;98290.91;;;13.59;69.95
79250;BME280;68679;51.030;7.584;2023-05-10T05:13:19;98282.53;;;13.57;70.05
79250;BME280;68679;51.030;7.584;2023-05-10T05:15:45;98287.47;;;13.59;69.97
79250;BME280;68679;51.030;7.584;2023-05-10T05:18:12;98292.44;;;13.60;69.58
79250;BME280;68679;51.030;7.584;2023-05-10T05:20:38;98300.63;;;13.59;70.05
79250;BME280;68679;51.030;7.584;2023-05-10T05:23:03;98306.72;;;13.59;69.71
79250;BME280;68679;51.030;7.584;2023-05-10T05:25:28;98310.88;;;13.60;69.80
79250;BME280;68679;51.030;7.584;2023-05-10T05:27:53;98310.88;;;13.60;69.58
79250;BME280;68679;51.030;7.584;2023-05-10T05:30:19;98307.63;;;13.63;69.78
79250;BME280;68679;51.030;7.584;2023-05-10T05:32:44;98306.84;;;13.63;69.88
79250;BME280;68679;51.030;7.584;2023-05-10T05:35:12;98305.31;;;13.62;69.78
79250;BME280;68679;51.030;7.584;2023-05-10T05:37:40;98305.00;;;13.63;70.32
79250;BME280;68679;51.030;7.584;2023-05-10T05:40:06;98317.56;;;13.66;69.95
79250;BME280;68679;51.030;7.584;2023-05-10T05:42:31;98307.78;;;13.67;69.81
79250;BME280;68679;51.030;7.584;2023-05-10T05:44:57;98311.97;;;13.68;70.21
79250;BME280;68679;51.030;7.584;2023-05-10T05:47:22;98314.63;;;13.68;70.20
79250;BME280;68679;51.030;7.584;2023-05-10T05:49:47;98322.19;;;13.69;70.34
79250;BME280;68679;51.030;7.584;2023-05-10T05:52:13;98335.84;;;13.72;70.64
79250;BME280;68679;51.030;7.584;2023-05-10T05:54:38;98335.53;;;13.73;70.34
79250;BME280;68679;51.030;7.584;2023-05-10T05:57:04;98330.13;;;13.78;70.26
79250;BME280;68679;51.030;7.584;2023-05-10T05:59:29;98330.28;;;13.82;69.91
79250;BME280;68679;51.030;7.584;2023-05-10T06:01:54;98332.31;;;13.85;70.15
79250;BME280;68679;51.030;7.584;2023-05-10T06:04:20;98331.97;;;13.86;70.22
79250;BME280;68679;51.030;7.584;2023-05-10T06:06:45;98338.81;;;13.87;70.17
79250;BME280;68679;51.030;7.584;2023-05-10T06:09:11;98341.44;;;13.87;70.19
79250;BME280;68679;51.030;7.584;2023-05-10T06:11:36;98334.03;;;13.89;70.31
79250;BME280;68679;51.030;7.584;2023-05-10T06:14:02;98336.66;;;13.89;70.18
79250;BME280;68679;51.030;7.584;2023-05-10T06:16:29;98350.28;;;13.91;70.51
79250;BME280;68679;51.030;7.584;2023-05-10T06:18:54;98340.97;;;13.94;70.14
79250;BME280;68679;51.030;7.584;2023-05-10T06:21:20;98340.97;;;13.94;70.26
79250;BME280;68679;51.030;7.584;2023-05-10T06:23:45;98341.75;;;13.94;70.34
79250;BME280;68679;51.030;7.584;2023-05-10T06:26:10;98342.22;;;13.97;70.26
79250;BME280;68679;51.030;7.584;2023-05-10T06:28:36;98350.13;;;13.97;70.24
79250;BME280;68679;51.030;7.584;2023-05-10T06:31:04;98346.72;;;13.96;70.08
79250;BME280;68679;51.030;7.584;2023-05-10T06:33:30;98346.72;;;13.96;69.82
79250;BME280;68679;51.030;7.584;2023-05-10T06:35:55;98350.91;;;13.97;70.24
79250;BME280;68679;51.030;7.584;2023-05-10T06:38:21;98353.22;;;13.99;69.78
79250;BME280;68679;51.030;7.584;2023-05-10T06:40:46;98342.69;;;13.99;69.82
79250;BME280;68679;51.030;7.584;2023-05-10T06:43:11;98366.41;;;13.99;69.76
79250;BME280;68679;51.030;7.584;2023-05-10T06:45:37;98367.19;;;13.99;69.67
79250;BME280;68679;51.030;7.584;2023-05-10T06:48:02;98363.47;;;14.00;69.69
79250;BME280;68679;51.030;7.584;2023-05-10T06:50:27;98374.00;;;14.00;69.82
79250;BME280;68679;51.030;7.584;2023-05-10T06:52:53;98374.31;;;13.99;69.99
79250;BME280;68679;51.030;7.584;2023-05-10T06:55:18;98370.91;;;13.98;69.98
79250;BME280;68679;51.030;7.584;2023-05-10T06:57:43;98376.19;;;13.98;69.71
79250;BME280;68679;51.030;7.584;2023-05-10T07:00:09;98376.78;;;13.95;69.95
79250;BME280;68679;51.030;7.584;2023-05-10T07:02:35;98381.28;;;13.94;70.11
79250;BME280;68679;51.030;7.584;2023-05-10T07:05:00;98381.00;;;13.96;69.65
79250;BME280;68679;51.030;7.584;2023-05-10T07:07:26;98385.19;;;13.97;69.94
79250;BME280;68679;51.030;7.584;2023-05-10T07:09:51;98390.91;;;13.99;69.87
79250;BME280;68679;51.030;7.584;2023-05-10T07:12:17;98388.72;;;14.01;69.90
79250;BME280;68679;51.030;7.584;2023-05-10T07:14:42;98390.75;;;14.04;69.76
79250;BME280;68679;51.030;7.584;2023-05-10T07:17:08;98395.41;;;14.07;70.20
79250;BME280;68679;51.030;7.584;2023-05-10T07:19:33;98394.03;;;14.10;69.65
79250;BME280;68679;51.030;7.584;2023-05-10T07:21:58;98398.66;;;14.13;70.07
79250;BME280;68679;51.030;7.584;2023-05-10T07:24:24;98396.81;;;14.13;69.57
79250;BME280;68679;51.030;7.584;2023-05-10T07:26:49;98402.88;;;14.14;69.75
79250;BME280;68679;51.030;7.584;2023-05-10T07:29:15;98400.38;;;14.17;69.22
79250;BME280;68679;51.030;7.584;2023-05-10T07:31:40;98403.97;;;14.21;69.26
79250;BME280;68679;51.030;7.584;2023-05-10T07:34:10;98395.41;;;14.25;69.31
79250;BME280;68679;51.030;7.584;2023-05-10T07:36:36;98398.34;;;14.32;67.84
79250;BME280;68679;51.030;7.584;2023-05-10T07:39:01;98396.97;;;14.34;68.69
79250;BME280;68679;51.030;7.584;2023-05-10T07:41:27;98396.06;;;14.39;69.04
79250;BME280;68679;51.030;7.584;2023-05-10T07:43:52;98399.59;;;14.43;67.89
79250;BME280;68679;51.030;7.584;2023-05-10T07:46:17;98406.44;;;14.44;68.00
79250;BME280;68679;51.030;7.584;2023-05-10T07:48:45;98408.00;;;14.45;68.68
79250;BME280;68679;51.030;7.584;2023-05-10T07:51:10;98412.66;;;14.48;66.60
79250;BME280;68679;51.030;7.584;2023-05-10T07:53:35;98408.47;;;14.47;68.19
79250;BME280;68679;51.030;7.584;2023-05-10T07:58:47;98419.19;;;14.51;67.71
79250;BME280;68679;51.030;7.584;2023-05-10T08:01:12;98423.06;;;14.53;67.28
79250;BME280;68679;51.030;7.584;2023-05-10T08:03:38;98419.03;;;14.56;66.97
79250;BME280;68679;51.030;7.584;2023-05-10T08:06:03;98421.19;;;14.54;68.11
79250;BME280;68679;51.030;7.584;2023-05-10T08:08:29;98426.34;;;14.50;67.77
79250;BME280;68679;51.030;7.584;2023-05-10T08:10:54;98423.38;;;14.52;67.09
79250;BME280;68679;51.030;7.584;2023-05-10T08:13:20;98422.63;;;14.51;68.49
79250;BME280;68679;51.030;7.584;2023-05-10T08:15:46;98423.69;;;14.50;68.16
79250;BME280;68679;51.030;7.584;2023-05-10T08:18:11;98425.69;;;14.53;68.12
79250;BME280;68679;51.030;7.584;2023-05-10T08:20:37;98424.63;;;14.54;68.18
79250;BME280;68679;51.030;7.584;2023-05-10T08:23:02;98422.13;;;14.58;67.72
79250;BME280;68679;51.030;7.584;2023-05-10T08:25:27;98429.72;;;14.59;68.36
79250;BME280;68679;51.030;7.584;2023-05-10T08:27:52;98427.56;;;14.61;68.41
79250;BME280;68679;51.030;7.584;2023-05-10T08:30:18;98425.41;;;14.63;67.72
79250;BME280;68679;51.030;7.584;2023-05-10T08:32:43;98426.63;;;14.66;67.96
79250;BME280;68679;51.030;7.584;2023-05-10T08:35:08;98428.94;;;14.67;67.52
79250;BME280;68679;51.030;7.584;2023-05-10T08:37:34;98429.88;;;14.71;66.28
79250;BME280;68679;51.030;7.584;2023-05-10T08:39:59;98428.47;;;14.74;66.26
79250;BME280;68679;51.030;7.584;2023-05-10T08:42:25;98435.78;;;14.77;66.55
79250;BME280;68679;51.030;7.584;2023-05-10T08:44:54;98441.50;;;14.79;66.49
79250;BME280;68679;51.030;7.584;2023-05-10T08:47:20;98438.56;;;14.81;64.79
79250;BME280;68679;51.030;7.584;2023-05-10T08:49:47;98445.84;;;14.84;64.70
79250;BME280;68679;51.030;7.584;2023-05-10T08:52:17;98442.59;;;14.87;63.96
79250;BME280;68679;51.030;7.584;2023-05-10T08:54:43;98447.56;;;14.88;64.26
79250;BME280;68679;51.030;7.584;2023-05-10T08:57:10;98455.94;;;14.90;65.25
79250;BME280;68679;51.030;7.584;2023-05-10T08:59:35;98448.00;;;14.90;65.82
79250;BME280;68679;51.030;7.584;2023-05-10T09:02:01;98453.75;;;14.92;65.64
79250;BME280;68679;51.030;7.584;2023-05-10T09:04:27;98446.44;;;14.98;63.16
79250;BME280;68679;51.030;7.584;2023-05-10T09:06:53;98445.06;;;15.00;64.24
79250;BME280;68679;51.030;7.584;2023-05-10T09:09:20;98452.03;;;15.05;62.39
79250;BME280;68679;51.030;7.584;2023-05-10T09:11:46;98449.22;;;15.10;62.67
79250;BME280;68679;51.030;7.584;2023-05-10T09:14:12;98456.53;;;15.13;62.30
79250;BME280;68679;51.030;7.584;2023-05-10T09:16:39;98458.66;;;15.20;64.27
79250;BME280;68679;51.030;7.584;2023-05-10T09:19:05;98451.97;;;15.22;62.04
79250;BME280;68679;51.030;7.584;2023-05-10T09:21:30;98457.72;;;15.24;62.66
79250;BME280;68679;51.030;7.584;2023-05-10T09:23:56;98454.44;;;15.27;63.72
79250;BME280;68679;51.030;7.584;2023-05-10T09:26:23;98461.28;;;15.28;64.75
79250;BME280;68679;51.030;7.584;2023-05-10T09:28:58;98462.53;;;15.31;65.53
79250;BME280;68679;51.030;7.584;2023-05-10T09:31:24;98455.81;;;15.34;64.86
79250;BME280;68679;51.030;7.584;2023-05-10T09:33:51;98469.97;;;15.38;65.34
79250;BME280;68679;51.030;7.584;2023-05-10T09:36:17;98461.09;;;15.42;65.23
79250;BME280;68679;51.030;7.584;2023-05-10T09:38:47;98471.03;;;15.45;64.70
79250;BME280;68679;51.030;7.584;2023-05-10T09:41:23;98468.22;;;15.50;64.92
79250;BME280;68679;51.030;7.584;2023-05-10T09:43:49;98466.00;;;15.52;65.01
79250;BME280;68679;51.030;7.584;2023-05-10T09:46:15;98469.91;;;15.55;64.92
79250;BME280;68679;51.030;7.584;2023-05-10T09:48:45;98475.78;;;15.61;64.65
79250;BME280;68679;51.030;7.584;2023-05-10T09:51:22;98472.84;;;15.62;64.48
79250;BME280;68679;51.030;7.584;2023-05-10T09:53:47;98476.72;;;15.65;64.41
79250;BME280;68679;51.030;7.584;2023-05-10T09:56:32;98473.78;;;15.66;64.69
79250;BME280;68679;51.030;7.584;2023-05-10T09:59:02;98478.91;;;15.71;64.45
79250;BME280;68679;51.030;7.584;2023-05-10T10:01:28;98477.91;;;15.76;64.60
79250;BME280;68679;51.030;7.584;2023-05-10T10:03:54;98470.91;;;15.80;64.30
79250;BME280;68679;51.030;7.584;2023-05-10T10:06:19;98476.66;;;15.82;64.04
79250;BME280;68679;51.030;7.584;2023-05-10T10:08:45;98475.25;;;15.85;64.19
79250;BME280;68679;51.030;7.584;2023-05-10T10:11:11;98476.47;;;15.87;64.15
79250;BME280;68679;51.030;7.584;2023-05-10T10:13:36;98483.00;;;15.90;63.94
79250;BME280;68679;51.030;7.584;2023-05-10T10:16:02;98478.94;;;15.92;63.56
79250;BME280;68679;51.030;7.584;2023-05-10T10:18:28;98482.03;;;15.94;63.65
79250;BME280;68679;51.030;7.584;2023-05-10T10:20:55;98473.78;;;15.96;63.94
79250;BME280;68679;51.030;7.584;2023-05-10T10:23:21;98480.63;;;15.97;63.84
79250;BME280;68679;51.030;7.584;2023-05-10T10:25:47;98478.00;;;15.97;63.67
79250;BME280;68679;51.030;7.584;2023-05-10T10:30:48;98479.19;;;15.99;63.98
79250;BME280;68679;51.030;7.584;2023-05-10T10:33:39;98484.31;;;16.04;64.58
79250;BME280;68679;51.030;7.584;2023-05-10T10:36:05;98486.63;;;16.06;64.15
79250;BME280;68679;51.030;7.584;2023-05-10T10:38:54;98483.81;;;16.11;63.75
79250;BME280;68679;51.030;7.584;2023-05-10T10:41:34;98486.38;;;16.20;64.82
79250;BME280;68679;51.030;7.584;2023-05-10T10:47:05;98493.56;;;16.19;64.75
79250;BME280;68679;51.030;7.584;2023-05-10T10:57:50;98504.69;;;16.04;61.58
79250;BME280;68679;51.030;7.584;2023-05-10T11:00:32;98511.72;;;16.00;62.72
79250;BME280;68679;51.030;7.584;2023-05-10T11:03:11;98508.28;;;15.99;61.05
79250;BME280;68679;51.030;7.584;2023-05-10T11:08:17;98519.66;;;16.00;61.00
79250;BME280;68679;51.030;7.584;2023-05-10T11:11:08;98518.09;;;15.99;61.06
79250;BME280;68679;51.030;7.584;2023-05-10T11:13:39;98515.31;;;15.95;62.60
79250;BME280;68679;51.030;7.584;2023-05-10T11:16:17;98519.03;;;15.94;61.45
79250;BME280;68679;51.030;7.584;2023-05-10T11:21:21;98512.38;;;15.97;61.09
79250;BME280;68679;51.030;7.584;2023-05-10T11:26:11;98515.47;;;15.99;61.21
79250;BME280;68679;51.030;7.584;2023-05-10T11:28:48;98521.41;;;15.96;61.56
79250;BME280;68679;51.030;7.584;2023-05-10T11:31:15;98516.88;;;15.96;61.86
79250;BME280;68679;51.030;7.584;2023-05-10T11:33:44;98517.00;;;16.00;60.97
79250;BME280;68679;51.030;7.584;2023-05-10T11:36:29;98528.81;;;16.02;61.57
79250;BME280;68679;51.030;7.584;2023-05-10T11:38:57;98524.16;;;15.99;61.31
79250;BME280;68679;51.030;7.584;2023-05-10T11:41:23;98531.31;;;15.99;63.16
79250;BME280;68679;51.030;7.584;2023-05-10T11:43:50;98526.97;;;15.94;67.53
79250;BME280;68679;51.030;7.584;2023-05-10T11:46:18;98530.28;;;15.91;65.33
79250;BME280;68679;51.030;7.584;2023-05-10T11:48:45;98539.59;;;15.89;66.88
79250;BME280;68679;51.030;7.584;2023-05-10T11:51:10;98545.88;;;15.84;65.52
79250;BME280;68679;51.030;7.584;2023-05-10T11:53:36;98543.38;;;15.79;67.50
79250;BME280;68679;51.030;7.584;2023-05-10T11:56:09;98542.19;;;15.68;67.57
79250;BME280;68679;51.030;7.584;2023-05-10T11:58:36;98547.63;;;15.63;67.92
79250;BME280;68679;51.030;7.584;2023-05-10T12:01:02;98553.22;;;15.52;68.16
79250;BME280;68679;51.030;7.584;2023-05-10T12:03:28;98546.09;;;15.44;68.29
79250;BME280;68679;51.030;7.584;2023-05-10T12:05:57;98542.19;;;15.50;68.86
79250;BME280;68679;51.030;7.584;2023-05-10T12:08:27;98545.91;;;15.58;68.53
79250;BME280;68679;51.030;7.584;2023-05-10T12:11:03;98539.72;;;15.63;68.22
79250;BME280;68679;51.030;7.584;2023-05-10T12:13:29;98549.19;;;15.64;68.23
79250;BME280;68679;51.030;7.584;2023-05-10T12:15:57;98551.34;;;15.70;67.59
79250;BME280;68679;51.030;7.584;2023-05-10T12:18:24;98550.72;;;15.73;66.84
79250;BME280;68679;51.030;7.584;2023-05-10T12:20:52;98544.00;;;15.76;66.17
79250;BME280;68679;51.030;7.584;2023-05-10T12:23:19;98549.44;;;15.79;66.00
79250;BME280;68679;51.030;7.584;2023-05-10T12:25:45;98548.03;;;15.82;65.00
79250;BME280;68679;51.030;7.584;2023-05-10T12:28:10;98553.91;;;15.88;63.54
79250;BME280;68679;51.030;7.584;2023-05-10T12:30:36;98551.88;;;15.93;63.87
79250;BME280;68679;51.030;7.584;2023-05-10T12:33:13;98558.25;;;15.92;64.84
79250;BME280;68679;51.030;7.584;2023-05-10T12:35:48;98553.75;;;15.93;65.04
79250;BME280;68679;51.030;7.584;2023-05-10T12:38:37;98566.66;;;15.94;63.63
79250;BME280;68679;51.030;7.584;2023-05-10T12:41:07;98558.09;;;15.97;65.22
79250;BME280;68679;51.030;7.584;2023-05-10T12:43:34;98561.84;;;15.96;65.82
79250;BME280;68679;51.030;7.584;2023-05-10T12:48:31;98562.47;;;15.93;65.85
79250;BME280;68679;51.030;7.584;2023-05-10T12:50:56;98563.06;;;15.99;65.32
79250;BME280;68679;51.030;7.584;2023-05-10T12:53:22;98566.16;;;16.01;65.56
79250;BME280;68679;51.030;7.584;2023-05-10T12:55:47;98571.59;;;16.04;65.08
79250;BME280;68679;51.030;7.584;2023-05-10T12:58:12;98574.06;;;16.09;63.71
79250;BME280;68679;51.030;7.584;2023-05-10T13:00:38;98569.22;;;16.12;62.88
79250;BME280;68679;51.030;7.584;2023-05-10T13:03:04;98568.28;;;16.16;62.04
79250;BME280;68679;51.030;7.584;2023-05-10T13:05:34;98571.69;;;16.17;63.59
79250;BME280;68679;51.030;7.584;2023-05-10T13:07:59;98576.66;;;16.18;61.70
79250;BME280;68679;51.030;7.584;2023-05-10T13:10:24;98566.56;;;16.20;61.42
79250;BME280;68679;51.030;7.584;2023-05-10T13:12:50;98569.19;;;16.20;62.77
79250;BME280;68679;51.030;7.584;2023-05-10T13:15:16;98573.69;;;16.20;61.68
79250;BME280;68679;51.030;7.584;2023-05-10T13:17:42;98573.38;;;16.21;61.83
79250;BME280;68679;51.030;7.584;2023-05-10T13:20:08;98574.00;;;16.18;61.84
79250;BME280;68679;51.030;7.584;2023-05-10T13:22:34;98570.25;;;16.19;63.28
79250;BME280;68679;51.030;7.584;2023-05-10T13:24:59;98573.69;;;16.20;61.65
79250;BME280;68679;51.030;7.584;2023-05-10T13:27:24;98572.63;;;16.21;61.40
79250;BME280;68679;51.030;7.584;2023-05-10T13:29:50;98576.81;;;16.22;61.48
79250;BME280;68679;51.030;7.584;2023-05-10T13:32:15;98576.81;;;16.22;61.64
79250;BME280;68679;51.030;7.584;2023-05-10T13:34:40;98576.03;;;16.21;62.75
79250;BME280;68679;51.030;7.584;2023-05-10T13:37:06;98577.13;;;16.20;63.91
79250;BME280;68679;51.030;7.584;2023-05-10T13:39:31;98573.38;;;16.21;62.49
79250;BME280;68679;51.030;7.584;2023-05-10T13:41:59;98582.09;;;16.22;63.19
79250;BME280;68679;51.030;7.584;2023-05-10T13:44:24;98577.91;;;16.21;63.92